x

Halibut Bank (46146) Wave Buoy

4:00 - Sat 27th Dec 2014 All times are PST. -8 hours from GMT.

  • Sig Wave height 2.0ft
  • Peak Period 3s
  • Wind
    22mph, 27mph gusts
  • Sea Temp 46°f
  • Aire Temp 41°f
  • Sea Pressure 1022.1mb
  • Halibut Bank
  • Halibut Bank

More Historic Weather Station data

Upgrade to MSW Pro to gain access to the past 30 days of data for over 8000 Wavebouys and Weather Stations around the globe.

Join Pro

Comparision Forecast

View Surf forecast
   
sáb 12/27 4:00 2ft 3s 22 27 mph 1022.1mb 46f 41f
3:00 1.6ft 3s 22 25 mph 1023.2mb 45f 41f
2:00 1.3ft 3s 20 22 mph 1024.2mb 45f 41f
1:00 1.3ft 2s 16 18 mph 1025.1mb 45f 41f
12:00 1ft 3s 16 18 mph 1025.5mb 45f 41f
vie 12/26 11:00 1ft 3s 13 16 mph 1026.3mb 45f 42f
10:00 0.7ft 2s 13 16 mph 1026.5mb 45f 42f
9:00 0.7ft 6s 11
mph
1026.9mb 45f 42f
8:00 0.3ft 3s 9 11 mph 1027.3mb 45f 42f
7:00 0.3ft 2s 7 9 mph 1027.8mb 45f 42f
6:00 0.3ft 6s 7 9 mph 1027.7mb 45f 42f
5:00 0.7ft 3s 7 9 mph 1028mb 45f 42f
4:00 0.7ft 2s 7
mph
1028.2mb 45f 42f
3:00 0.7ft 2s 7 9 mph 1027.9mb 45f 42f
2:00 0.7ft 2s 9 11 mph 1028mb 45f 42f
1:00 0.7ft 2s 9 11 mph 1028.1mb 45f 42f
12:00 0.7ft 3s 9 11 mph 1028.4mb 45f 42f
11:00 0.7ft 2s 9
mph
1028.6mb 45f 42f
10:00 0.3ft 4s 7 9 mph 1028.7mb 45f 42f
9:00 0.7ft 2s 4
mph
1028.4mb 45f 42f
8:00 0.7ft 2s 7 9 mph 1027.9mb 45f 42f
7:00 0.7ft 2s 4 7 mph 1027.6mb 45f 41f
6:00 0.7ft 2s  -  mph 1027.8mb 45f 42f
5:00 0.3ft 2s 4
mph
1027.7mb 45f 41f
4:00 0.3ft 2s 4 7 mph 1027.5mb 45f 42f
3:00 0.3ft 2s 4
mph
1027.6mb 45f 41f
2:00 0.7ft 2s 2 4 mph 1027.3mb 45f 41f
1:00 0.7ft 2s 7 9 mph 1026.6mb 45f 41f
12:00 0.3ft 2s 7
mph
1026.2mb 45f 41f
jue 12/25 11:00 0.7ft 2s 4 7 mph 1025.8mb 45f 41f
10:00 0.7ft 3s 9
mph
1025.8mb 45f 42f
9:00 0.7ft 2s 11
mph
1025.5mb 45f 42f
8:00 0.3ft 2s 9
mph
1025.4mb 45f 43f
7:00 0.3ft 3s 9 11 mph 1024.8mb 45f 43f
6:00 0.3ft 3s 4 7 mph 1024.1mb 45f 43f
5:00 0.7ft 2s 2
mph
1023.6mb 45f 43f
4:00 0.7ft 2s  -  2 mph 1023.5mb 45f 44f
3:00 0.3ft 2s 4
mph
1023.5mb 45f 44f
2:00 0.3ft 7s  -  mph 1023mb 45f 44f
1:00 0.3ft 3s 2
mph
1022.7mb 45f 43f
12:00 0.3ft 3s  -  mph 1022.3mb 45f 45f
11:00 0.7ft 3s 2 4 mph 1022.2mb 45f 43f
10:00 0.7ft 3s 7 9 mph 1022.1mb 45f 42f
9:00 0.7ft 3s 7 9 mph 1021.2mb 45f 42f
8:00 1ft 3s 9
mph
1020.4mb 45f 41f
7:00 1.3ft 3s 9 11 mph 1019.9mb 45f 41f
6:00 1.3ft 4s 9
mph
1019.4mb 45f 41f
5:00 1.3ft 4s 7 9 mph 1019.1mb 45f 41f
4:00 1.3ft 4s 7 9 mph 1019.2mb 45f 41f
3:00 1ft 4s 4
mph
1019mb 45f 41f
2:00 1ft 4s 11
mph
1018.4mb 45f 41f
1:00 1ft 4s 11
mph
1017.9mb 45f 41f
12:00 1.3ft 4s 9 11 mph 1017.3mb 45f 42f
mié 12/24 11:00 1.3ft 4s 9
mph
1016.9mb 45f 41f
10:00 1.6ft 4s 16 20 mph 1015.9mb 46f 44f
9:00 2.5ft 4s 13 18 mph 1015.5mb 46f 44f
8:00 3ft 4s 18 22 mph 1015.1mb 46f 44f
7:00 2.5ft 4s 27 31 mph 1014mb 46f 45f
6:00 3ft 5s 22 29 mph 1013.6mb 46f 45f
5:00 3ft 5s 18 20 mph 1013.4mb 46f 45f
4:00 2.5ft 4s 20 25 mph 1013mb 46f 45f
3:00 2.5ft 4s 20 25 mph 1012.3mb 46f 46f
2:00 1.6ft 4s 18 20 mph 1012.1mb 46f 45f
1:00 2ft 4s 18 22 mph 1011.7mb 46f 45f
12:00 1.6ft 4s 18 22 mph 1011.6mb 45f 44f
11:00 1.3ft 3s 18 20 mph 1011.8mb 45f 44f
10:00 1.3ft 3s 13 16 mph 1012mb 45f 44f
9:00 1ft 3s 13
mph
1011.7mb 45f 44f
8:00 0.7ft 2s 13 16 mph 1011.3mb 45f 44f
7:00 0.3ft 4s 9 13 mph 1011.3mb 45f 45f
6:00 0.3ft 2s 7 9 mph 1011.4mb 45f 44f
5:00 0.3ft 2s 7
mph
1012mb 45f 44f
4:00 0.3ft 3s 4 7 mph 1012.3mb 45f 45f
3:00 0.7ft 2s 2
mph
1013.4mb 45f 45f
2:00 0.7ft 2s 7 9 mph 1013.7mb 45f 46f
1:00 0.7ft 2s 9 11 mph 1014.3mb 45f 46f
12:00 1ft 3s 9 13 mph 1015mb 45f 46f
mar 12/23 11:00 1ft 3s 13 16 mph 1015.6mb 45f 46f
10:00 1ft 3s 11 13 mph 1015.8mb 45f 46f
9:00 1ft 3s 13 16 mph 1015.9mb 45f 46f
8:00 1ft 3s 13 18 mph 1016.4mb 45f 46f
7:00 1ft 2s 13 16 mph 1017.1mb 45f 46f
6:00 1ft 2s 13 18 mph 1017.4mb 45f 46f
5:00 1ft 2s 11 13 mph 1017.7mb 45f 46f
4:00 1ft 2s 11 13 mph 1017.7mb 46f 45f
3:00 1ft 3s 9 11 mph 1018.8mb 46f 46f
2:00 1.3ft 3s 13 16 mph 1017.9mb 46f 45f